Airfield :
LOGIN :

Register | Disclaimer

   EN    FR    IT 

 










Legend :    VFR   Marginal VFR   IFR   Intensive IFR   Very Intensive IFR
Visi :
Ceiling :
>= 8 km
>= 3000ft
5 to 8 km
1000 to 3000 ft
1500m to 5 km
500 to 1000 ft
800 to 1500m
200 to 500 ft
< 800m
< 200 ft
Symbols :   Thunderstorms  Fog  Heavy snow  Heavy precipitations  Wind > 20 kt
SIGMETs :     Misc.  Thunderstorms  Icing  Turbulence  Mountain Waves  Volcanic Ashes







- Airport Elevation : 1766 ft


ETHL - Laupheim AB

CURRENT METAR :
  • 181420Z 36003KT 9999 FEW040 SCT240 00/M05 Q1018 BLU+

EXPIRED METARs :
  • 181320Z 35004KT 9999 FEW040 BKN050 M00/M05 Q1018 BLU
  • 181250Z 34002KT 9999 FEW040 BKN050 M00/M05 Q1018 BLU FCST CANCEL
  • 181220Z 28003KT 9999 FEW035 BKN048 M00/M05 Q1018 BLU BLU

TAF AMD TAF ETHL
Valid from the 18 at 09:00 until the 18 at 18:00 UTC


181245Z 1809/1818 25007KT 9999 NSW SCT020 BKN040
PROB30 1809/1810 25012KT 4000 -SHSN BKN020TCU CANCEL 1250
No reported NOTAMs for that airfield.



MET'MAP, your aeronautical weather chart ! - Copyright ORBIFLY December 2007 - Disclaimer

ORBIFLY MET'MAP TEAM :

Programming & Development : Alexandra Zaïnal
Concept & Development : Baudouin d'Aumeries
Co-Development & Prog : Marc-Olivier Méhu
Technical & hardware support : Manuel Goepfert

Contact : metmap@orbifly.com




SOURCES & CREDITS :

   NOAA